Moody Air Force Base
KVAD : now visible

Airfield :











YOU CAN JOIN US ON...

 
LOGIN :

Register | Disclaimer

   EN    FR    IT 

 









Legend :    VFR   Marginal VFR   IFR   Intensive IFR   Very Intensive IFR
Visi :
Ceiling :
>= 8 km
>= 3000ft
5 to 8 km
1000 to 3000 ft
1500m to 5 km
500 to 1000 ft
800 to 1500m
200 to 500 ft
< 800m
< 200 ft
Symbols :   Thunderstorms  Fog  Heavy snow  Heavy precipitations  Wind > 20 kt






- Airport Elevation : 233 ft


KVAD - Moody Air Force Base

CURRENT METAR :
  • 070404Z AUTO 11005KT 10SM -RA BKN007 OVC050 23/22 A2997 RMK AO2 SLP149

EXPIRED METARs :
  • 070258Z AUTO 09003KT 10SM -RA OVC005 23/22 A2997 RMK AO2 SLP149
  • 070256Z AUTO 10006KT 10SM -RA OVC006 23/22 A2997 RMK AO2 RAE26DZB26E28RAB28 SLP149 P0002 60030 T02260217 55007
  • 070238Z AUTO 09005KT 10SM -RA OVC006 23/22 A2997 RMK AO2 RAE26DZB26E28RAB28 OVC V BKN SLP149
  • 070216Z AUTO 07003KT 10SM -RA BKN007 BKN019 OVC085 23/22 A2997 RMK AO2 CIG 006V021 SLP149
  • 070212Z AUTO 07003KT 10SM -RA SCT006 SCT010 BKN019 OVC090 23/22 A2997 RMK AO2 CIG 006V021 SLP149
  • 070200Z AUTO 07004KT 10SM -RA BKN006 BKN048 OVC065 23/22 A2997 RMK AO2 SLP149
  • 070129Z AUTO 05004KT 7SM -RA SCT004 23/22 A2997 RMK AO2 SLP149
  • 070119Z AUTO 00000KT 3SM +RA BR BKN004 OVC060 23/22 A2997 RMK AO2 CIG 004V070 BKN V SCT SLP149
  • 070059Z AUTO 00000KT 8SM -RA FEW004 FEW065 OVC080 23/22 A2997 RMK AO2 SLP149

Expired Forecast.
KZJX FIR / North America



MET'MAP, your aeronautical weather chart ! - Copyright ORBIFLY December 2007 - Disclaimer

ORBIFLY MET'MAP TEAM :

Programming & Development : Alexandra Zaïnal
Concept & original design : Baudouin d'Aumeries
Assistance for programming : Marc-Olivier Méhu
Technical & hardware support : Manuel Goepfert

Contact : metmap@orbifly.com




SOURCES & CREDITS :

   NOAA       Earth
Advisory